createdAt,value
2018-02-27T00:02:10.513Z,29.00
2018-02-27T00:04:40.463Z,29.20
2018-02-27T00:07:09.546Z,29.20
2018-02-27T00:09:39.393Z,29.10
2018-02-27T00:12:08.466Z,29.00
2018-02-27T00:14:37.562Z,29.20
2018-02-27T00:17:06.677Z,29.60
2018-02-27T00:19:35.754Z,29.90
2018-02-27T00:22:04.842Z,29.80
2018-02-27T00:24:33.964Z,29.50
2018-02-27T00:27:03.037Z,29.60
2018-02-27T00:29:32.945Z,29.60
2018-02-27T00:32:03.521Z,29.60
2018-02-27T00:34:32.695Z,29.10
2018-02-27T00:37:01.873Z,29.10
2018-02-27T00:39:30.945Z,29.50
2018-02-27T00:42:00.797Z,29.60
2018-02-27T00:44:29.898Z,29.60
2018-02-27T00:46:59.769Z,30.70
2018-02-27T00:49:28.850Z,30.70
2018-02-27T00:51:57.962Z,30.70
2018-02-27T00:54:27.037Z,30.50
2018-02-27T00:56:56.873Z,31.30
2018-02-27T00:59:26.730Z,31.40
2018-02-27T01:01:55.821Z,31.30
2018-02-27T01:04:25.657Z,31.10
2018-02-27T01:06:58.982Z,31.10
2018-02-27T01:09:28.066Z,31.20
2018-02-27T01:11:57.901Z,32.10
2018-02-27T01:14:26.978Z,32.10
2018-02-27T01:16:56.050Z,32.10
2018-02-27T01:19:25.129Z,32.00
2018-02-27T01:21:54.378Z,32.10
2018-02-27T01:24:23.529Z,32.70
2018-02-27T01:26:53.373Z,33.10
2018-02-27T01:29:22.453Z,33.00
2018-02-27T01:31:51.534Z,33.00
2018-02-27T01:34:20.605Z,33.20
2018-02-27T01:36:49.717Z,33.10
2018-02-27T01:39:18.789Z,33.10
2018-02-27T01:41:47.870Z,33.40
2018-02-27T01:44:17.005Z,33.80
2018-02-27T01:46:46.850Z,33.20
2018-02-27T01:49:16.698Z,33.80
2018-02-27T01:51:45.815Z,33.00
2018-02-27T01:54:14.898Z,33.10
2018-02-27T01:56:44.165Z,33.10
2018-02-27T01:59:13.260Z,33.40
2018-02-27T02:01:42.366Z,33.30
2018-02-27T02:04:11.485Z,33.40
2018-02-27T02:06:41.393Z,33.30
2018-02-27T02:09:11.241Z,33.30
2018-02-27T02:11:40.322Z,33.30
2018-02-27T02:14:10.170Z,33.20
2018-02-27T02:16:39.253Z,33.20
2018-02-27T02:19:09.102Z,33.30
2018-02-27T02:21:38.473Z,33.20
2018-02-27T02:24:07.558Z,33.40
2018-02-27T02:26:36.633Z,33.80
2018-02-27T02:29:06.572Z,34.00
2018-02-27T02:31:35.691Z,34.00
2018-02-27T02:34:04.769Z,34.20
2018-02-27T02:36:34.614Z,34.00
2018-02-27T02:39:03.689Z,34.00
2018-02-27T02:41:32.775Z,33.90
2018-02-27T02:44:01.948Z,34.00
2018-02-27T02:46:31.033Z,34.10
2018-02-27T02:49:00.114Z,34.10
2018-02-27T02:51:29.192Z,34.80
2018-02-27T02:53:58.282Z,34.20
2018-02-27T02:56:27.417Z,34.20
2018-02-27T02:58:56.502Z,34.00
2018-02-27T03:01:25.594Z,34.30
2018-02-27T03:03:55.463Z,34.80
2018-02-27T03:06:24.606Z,34.60
2018-02-27T03:08:53.686Z,34.50
2018-02-27T03:11:22.767Z,34.10
2018-02-27T03:13:52.614Z,34.00
2018-02-27T03:16:21.757Z,33.90
2018-02-27T03:18:50.841Z,34.20
2018-02-27T03:21:19.968Z,34.20
2018-02-27T03:23:49.118Z,34.00
2018-02-27T03:26:18.298Z,34.00
2018-02-27T03:28:47.386Z,34.10
2018-02-27T03:31:16.534Z,34.00
2018-02-27T03:33:45.622Z,34.10
2018-02-27T03:36:14.730Z,34.10
2018-02-27T03:38:43.815Z,34.00
2018-02-27T03:41:12.975Z,33.90
2018-02-27T03:43:42.057Z,33.90
2018-02-27T03:46:11.142Z,34.20
2018-02-27T03:48:40.229Z,34.40
2018-02-27T03:51:10.206Z,34.50
2018-02-27T14:18:34.026Z,24.40
2018-02-27T14:21:03.099Z,24.40
2018-02-27T14:23:32.173Z,23.90
2018-02-27T14:26:01.273Z,23.60
2018-02-27T14:28:30.344Z,23.50
2018-02-27T14:30:59.481Z,23.80
2018-02-27T14:33:28.557Z,23.70
2018-02-27T14:35:58.412Z,23.20
2018-02-27T14:38:27.489Z,23.10
2018-02-27T14:40:57.334Z,22.90
2018-02-27T14:43:26.410Z,22.80
2018-02-27T14:45:55.485Z,22.80
2018-02-27T14:49:46.197Z,23.40
2018-02-27T14:52:15.394Z,23.30
2018-02-27T14:54:45.240Z,23.30
2018-02-27T14:57:14.319Z,23.30
2018-02-27T14:59:44.153Z,23.70
2018-02-27T15:02:14.007Z,23.60
2018-02-27T15:04:43.090Z,23.50
2018-02-27T15:07:12.985Z,23.70
2018-02-27T15:09:42.119Z,23.60
2018-02-27T15:12:11.227Z,23.50
2018-02-27T15:14:40.294Z,23.30
2018-02-27T15:17:09.366Z,23.60
2018-02-27T15:19:39.205Z,23.90
2018-02-27T15:22:08.335Z,23.90
2018-02-27T15:24:37.445Z,24.20
2018-02-27T15:27:06.526Z,24.90
2018-02-27T15:29:36.359Z,24.80
2018-02-27T15:32:05.430Z,24.90
2018-02-27T15:34:34.505Z,25.00
2018-02-27T15:37:03.652Z,25.30
2018-02-27T15:39:32.726Z,26.50
2018-02-27T15:42:01.866Z,26.80
2018-02-27T15:44:30.941Z,26.60
2018-02-27T15:47:00.020Z,26.10
2018-02-27T15:49:29.898Z,26.70
2018-02-27T15:51:58.966Z,26.70
2018-02-27T15:54:28.048Z,26.90
2018-02-27T15:56:57.945Z,27.50
2018-02-27T15:59:27.028Z,26.90
2018-02-27T16:01:56.158Z,27.40
2018-02-27T16:04:25.273Z,27.60
2018-02-27T16:06:54.338Z,27.80
2018-02-27T16:09:24.299Z,28.00
2018-02-27T16:11:53.379Z,28.00
2018-02-27T16:14:23.223Z,28.00
2018-02-27T16:16:52.442Z,27.90
2018-02-27T16:19:21.528Z,28.40
2018-02-27T16:21:51.373Z,28.60
2018-02-27T16:24:20.462Z,28.60
2018-02-27T16:26:50.308Z,28.90
2018-02-27T16:29:19.382Z,28.80
2018-02-27T16:31:48.457Z,29.20
2018-02-27T16:34:17.525Z,29.70
2018-02-27T16:36:47.362Z,29.40
2018-02-27T16:39:16.439Z,29.30
2018-02-27T16:41:45.521Z,29.70
2018-02-27T16:44:14.634Z,30.00
2018-02-27T16:46:43.922Z,30.40
2018-02-27T16:49:13.006Z,30.50
2018-02-27T16:51:42.853Z,30.60
2018-02-27T16:54:11.928Z,30.60
2018-02-27T16:56:41.902Z,31.00
2018-02-27T16:59:10.990Z,30.80
2018-02-27T17:01:40.076Z,32.20
2018-02-27T17:04:09.922Z,35.50
2018-02-27T17:06:39.093Z,34.90
2018-02-27T17:09:08.171Z,36.00
2018-02-27T17:11:37.252Z,35.80
2018-02-27T17:14:07.098Z,35.70
2018-02-27T17:16:36.231Z,35.70
2018-02-27T17:19:05.344Z,35.70
2018-02-27T17:21:34.425Z,35.60
2018-02-27T17:24:03.551Z,34.70
2018-02-27T17:26:32.661Z,35.20
2018-02-27T17:29:01.767Z,35.50
2018-02-27T17:31:31.008Z,35.40
2018-02-27T17:34:00.106Z,35.40
2018-02-27T17:36:29.181Z,35.60
2018-02-27T17:38:58.282Z,36.00
2018-02-27T17:41:28.132Z,35.30
2018-02-27T17:43:57.238Z,35.30
2018-02-27T17:46:26.323Z,35.20
2018-02-27T17:48:56.242Z,35.50
2018-02-27T17:51:25.591Z,35.50
2018-02-27T17:53:54.723Z,36.00
2018-02-27T17:56:23.847Z,35.20
2018-02-27T17:58:52.920Z,35.10
2018-02-27T18:01:22.001Z,35.00
2018-02-27T18:03:52.239Z,35.10
2018-02-27T18:06:21.310Z,35.00
2018-02-27T18:08:50.390Z,34.80
2018-02-27T18:11:19.475Z,33.50
2018-02-27T18:13:49.322Z,33.70
2018-02-27T18:16:18.403Z,33.60
2018-02-27T18:18:47.490Z,33.30
2018-02-27T18:21:16.579Z,33.70
2018-02-27T18:23:45.666Z,34.20
2018-02-27T18:26:14.790Z,33.90
2018-02-27T18:28:44.009Z,33.60
2018-02-27T18:31:13.087Z,33.30
2018-02-27T18:33:42.962Z,32.90
2018-02-27T18:36:12.113Z,32.90
2018-02-27T18:38:41.490Z,33.70
2018-02-27T18:41:10.664Z,33.00
2018-02-27T18:43:39.803Z,33.00
2018-02-27T18:46:08.863Z,32.70
2018-02-27T18:48:37.969Z,32.70
2018-02-27T18:51:07.862Z,32.50
2018-02-27T18:53:36.950Z,33.00
2018-02-27T18:56:06.031Z,33.20
2018-02-27T18:58:35.123Z,33.20
2018-02-27T19:01:05.005Z,34.10
2018-02-27T19:03:34.090Z,33.70
2018-02-27T19:06:03.198Z,33.80
2018-02-27T19:08:32.286Z,34.70
2018-02-27T19:11:01.370Z,34.60
2018-02-27T19:13:30.493Z,35.00
2018-02-27T19:15:59.633Z,34.70
2018-02-27T19:18:28.781Z,35.90
2018-02-27T19:20:57.882Z,37.00
2018-02-27T19:23:27.016Z,39.10
2018-02-27T19:25:56.182Z,39.30
2018-02-27T19:28:25.266Z,39.90
2018-02-27T19:30:55.182Z,40.60
2018-02-27T19:33:24.289Z,40.50
2018-02-27T19:35:53.374Z,40.80
2018-02-27T19:38:22.455Z,41.00
2018-02-27T19:40:51.694Z,41.10
2018-02-27T19:43:20.773Z,41.40
2018-02-27T19:45:49.921Z,41.70
2018-02-27T19:48:19.010Z,42.00
2018-02-27T19:50:48.116Z,41.90
2018-02-27T19:53:17.201Z,42.00
2018-02-27T19:55:47.041Z,42.90
2018-02-27T19:58:16.121Z,42.90
2018-02-27T20:00:45.217Z,43.30
2018-02-27T20:03:14.302Z,43.10
2018-02-27T20:05:43.418Z,43.00
2018-02-27T20:08:12.505Z,43.20
2018-02-27T20:10:41.589Z,43.40
2018-02-27T20:13:10.669Z,43.40
2018-02-27T20:15:39.817Z,43.10
2018-02-27T20:18:11.497Z,42.80
2018-02-27T20:20:40.833Z,42.80
2018-02-27T20:23:15.566Z,42.20
2018-02-27T20:25:44.677Z,42.60
2018-02-27T20:28:19.339Z,42.70
2018-02-27T20:30:48.517Z,42.60
2018-02-27T20:33:17.602Z,39.30
2018-02-27T20:35:46.771Z,36.50
2018-02-27T20:38:15.967Z,34.60
2018-02-27T20:40:45.047Z,34.50
2018-02-27T20:43:14.889Z,31.90
2018-02-27T20:45:44.014Z,31.90
2018-02-27T20:48:13.093Z,32.10
2018-02-27T20:50:42.654Z,30.60
2018-02-27T20:53:11.722Z,30.40
2018-02-27T20:55:41.601Z,30.10
2018-02-27T20:58:10.669Z,30.00
2018-02-27T21:00:40.696Z,29.70
2018-02-27T21:03:10.538Z,29.80
2018-02-27T21:05:40.374Z,29.50
2018-02-27T21:08:09.447Z,29.50
2018-02-27T21:10:38.546Z,29.80
2018-02-27T21:13:07.633Z,29.50
2018-02-27T21:15:36.710Z,29.80
2018-02-27T21:18:05.791Z,30.40
2018-02-27T21:20:35.962Z,31.30
2018-02-27T21:23:05.039Z,31.30
2018-02-27T21:25:34.110Z,31.50
2018-02-27T21:28:03.181Z,31.60
2018-02-27T21:30:32.296Z,31.30
2018-02-27T21:33:01.425Z,31.30
2018-02-27T21:35:30.510Z,31.30
2018-02-27T21:37:59.590Z,31.10
2018-02-27T21:40:28.706Z,31.40
2018-02-27T21:42:58.694Z,31.50
2018-02-27T21:45:27.935Z,30.90
2018-02-27T21:47:57.067Z,30.30
2018-02-27T21:50:26.905Z,29.70
2018-02-27T21:52:56.754Z,29.80
2018-02-27T21:55:25.893Z,29.80
2018-02-27T21:57:54.977Z,30.00
2018-02-27T22:00:24.053Z,30.00
2018-02-27T22:02:53.901Z,29.40
2018-02-27T22:05:22.978Z,29.40
2018-02-27T22:07:52.061Z,29.50
2018-02-27T22:10:21.362Z,29.90
2018-02-27T22:12:50.565Z,30.00
2018-02-27T22:15:19.725Z,29.80
2018-02-27T22:17:48.813Z,29.80
2018-02-27T22:20:17.885Z,29.60
2018-02-27T22:22:47.093Z,29.60
2018-02-27T22:25:16.189Z,29.90
2018-02-27T22:27:46.030Z,30.00
2018-02-27T22:30:15.161Z,30.50
2018-02-27T22:32:44.230Z,29.90
2018-02-27T22:35:14.074Z,29.60
2018-02-27T22:37:43.913Z,29.60
2018-02-27T22:40:13.022Z,29.60
2018-02-27T22:42:42.093Z,29.80
2018-02-27T22:45:11.266Z,30.00
2018-02-27T22:47:40.342Z,30.20
2018-02-27T22:50:10.181Z,30.70
2018-02-27T22:52:39.309Z,30.70
2018-02-27T22:55:08.398Z,31.10
2018-02-27T22:57:37.528Z,31.00
2018-02-27T23:00:06.611Z,31.00
2018-02-27T23:02:35.692Z,31.00
2018-02-27T23:05:06.281Z,31.30
2018-02-27T23:07:35.359Z,31.30
2018-02-27T23:10:05.318Z,32.30
2018-02-27T23:12:34.398Z,32.20
2018-02-27T23:15:04.246Z,32.40
2018-02-27T23:17:33.335Z,32.10
2018-02-27T23:20:03.257Z,32.00
2018-02-27T23:22:32.345Z,31.90
2018-02-27T23:25:08.726Z,32.20
2018-02-27T23:27:39.883Z,32.20
2018-02-27T23:30:11.818Z,32.10
2018-02-27T23:32:42.726Z,32.10
2018-02-27T23:35:19.902Z,32.30
2018-02-27T23:37:49.027Z,32.90
2018-02-27T23:40:18.113Z,33.30
2018-02-27T23:42:47.241Z,33.00
2018-02-27T23:45:16.538Z,33.00
2018-02-27T23:47:45.630Z,33.20
2018-02-27T23:50:14.716Z,33.30
2018-02-27T23:52:44.685Z,33.30
2018-02-27T23:55:13.817Z,33.20
2018-02-27T23:57:42.913Z,33.50
